Main page
METAR-TAF:

METAR-TAF

Airports :

Nakhon Ratchasima Airport

Nakhon Ratchasima, Thailand

latitude: 14-56-58N, longitude: 102-18-45E, elevation: 233 m

Current weather observation

The report was made 34 minutes ago, at 02:00 UTC
Wind 8 kt from the South/Southwest
Temperature 33°C
Humidity 53%
Pressure 1009 hPa
Visibility 10 km or more
no clouds below 1500 m and no cumulonimbus

METAR: VTUQ 230200Z 20008KT CAVOK 33/22 Q1009 NOSIG

Time: 09:34 (02:34 UTC)

Forecast

The report was made 3 hours and 34 minutes ago, at 23:00 UTC
Forecast valid from 23 at 00 UTC to 23 at 24 UTC
Wind 5 kt from the Southwest
Visibility: 8000 m
Few clouds at a height of 3500 ft

TAF: VTUQ 222300Z 2300/2324 22005KT 8000 FEW035

Weather observations and forecasts of more than 4000 airports (METAR and TAF reports).

The available stations are represented by yellow and red dots on the map.

Hover mouse over dot to see the name of the station.

Then click to see weather observations and forecasts.

To change the map : click on the green buttons with a black cross to zoom in, on the green button with a dash to zoom out, or on the green arrows for adjacent maps.


METAR-TAF: